sensor_id;sensor_type;location;lat;lon;timestamp;pressure;altitude;pressure_sealevel;temperature;humidity
64340;BME280;63709;53.258;-8.814;2023-03-16T00:02:15;99674.28;;;14.89;100.00
64340;BME280;63709;53.258;-8.814;2023-03-16T00:04:40;99671.25;;;14.92;100.00
64340;BME280;63709;53.258;-8.814;2023-03-16T00:07:08;99671.56;;;14.97;100.00
64340;BME280;63709;53.258;-8.814;2023-03-16T00:09:35;99667.88;;;14.90;100.00
64340;BME280;63709;53.258;-8.814;2023-03-16T00:12:05;99661.16;;;14.94;100.00
64340;BME280;63709;53.258;-8.814;2023-03-16T00:14:31;99668.22;;;14.87;100.00
64340;BME280;63709;53.258;-8.814;2023-03-16T00:17:00;99658.84;;;14.91;100.00
64340;BME280;63709;53.258;-8.814;2023-03-16T00:19:28;99649.56;;;14.93;100.00
64340;BME280;63709;53.258;-8.814;2023-03-16T00:21:53;99647.88;;;15.00;100.00
64340;BME280;63709;53.258;-8.814;2023-03-16T00:24:19;99639.50;;;14.95;100.00
64340;BME280;63709;53.258;-8.814;2023-03-16T00:26:45;99631.09;;;14.98;100.00
64340;BME280;63709;53.258;-8.814;2023-03-16T00:29:10;99623.88;;;14.99;100.00
64340;BME280;63709;53.258;-8.814;2023-03-16T00:31:36;99611.81;;;14.95;100.00
64340;BME280;63709;53.258;-8.814;2023-03-16T00:34:02;99617.19;;;14.95;100.00
64340;BME280;63709;53.258;-8.814;2023-03-16T00:36:27;99617.84;;;14.89;100.00
64340;BME280;63709;53.258;-8.814;2023-03-16T00:38:53;99617.66;;;14.90;100.00
64340;BME280;63709;53.258;-8.814;2023-03-16T00:41:18;99614.31;;;14.96;100.00
64340;BME280;63709;53.258;-8.814;2023-03-16T00:43:45;99611.69;;;14.80;100.00
64340;BME280;63709;53.258;-8.814;2023-03-16T00:46:11;99608.09;;;14.96;100.00
64340;BME280;63709;53.258;-8.814;2023-03-16T00:48:39;99601.41;;;14.92;100.00
64340;BME280;63709;53.258;-8.814;2023-03-16T00:51:08;99605.59;;;14.86;100.00
64340;BME280;63709;53.258;-8.814;2023-03-16T00:53:34;99596.84;;;14.92;100.00
64340;BME280;63709;53.258;-8.814;2023-03-16T00:56:01;99590.63;;;15.00;100.00
64340;BME280;63709;53.258;-8.814;2023-03-16T00:58:32;99589.63;;;14.93;100.00
64340;BME280;63709;53.258;-8.814;2023-03-16T01:01:00;99584.56;;;14.98;100.00
64340;BME280;63709;53.258;-8.814;2023-03-16T01:03:26;99583.91;;;14.96;100.00
64340;BME280;63709;53.258;-8.814;2023-03-16T01:05:52;99580.34;;;15.04;100.00
64340;BME280;63709;53.258;-8.814;2023-03-16T01:08:18;99578.00;;;15.00;100.00
64340;BME280;63709;53.258;-8.814;2023-03-16T01:10:43;99575.56;;;14.91;100.00
64340;BME280;63709;53.258;-8.814;2023-03-16T01:13:11;99560.59;;;14.88;100.00
64340;BME280;63709;53.258;-8.814;2023-03-16T01:15:38;99554.22;;;14.89;100.00
64340;BME280;63709;53.258;-8.814;2023-03-16T01:18:04;99549.28;;;15.01;100.00
64340;BME280;63709;53.258;-8.814;2023-03-16T01:20:30;99542.63;;;14.89;100.00
64340;BME280;63709;53.258;-8.814;2023-03-16T01:23:00;99526.97;;;15.00;100.00
64340;BME280;63709;53.258;-8.814;2023-03-16T01:25:26;99534.53;;;14.97;100.00
64340;BME280;63709;53.258;-8.814;2023-03-16T01:27:53;99539.38;;;15.01;100.00
64340;BME280;63709;53.258;-8.814;2023-03-16T01:30:18;99544.25;;;15.06;100.00
64340;BME280;63709;53.258;-8.814;2023-03-16T01:32:46;99543.03;;;15.09;100.00
64340;BME280;63709;53.258;-8.814;2023-03-16T01:35:12;99550.66;;;14.97;100.00
64340;BME280;63709;53.258;-8.814;2023-03-16T01:37:38;99541.72;;;15.05;100.00
64340;BME280;63709;53.258;-8.814;2023-03-16T01:40:04;99536.19;;;14.98;100.00
64340;BME280;63709;53.258;-8.814;2023-03-16T01:42:40;99539.56;;;15.00;100.00
64340;BME280;63709;53.258;-8.814;2023-03-16T01:45:51;99527.00;;;14.92;100.00
64340;BME280;63709;53.258;-8.814;2023-03-16T01:47:51;99529.16;;;14.97;100.00
64340;BME280;63709;53.258;-8.814;2023-03-16T01:50:17;99524.75;;;15.04;100.00
64340;BME280;63709;53.258;-8.814;2023-03-16T01:52:43;99526.63;;;15.04;100.00
64340;BME280;63709;53.258;-8.814;2023-03-16T01:55:10;99526.41;;;15.05;100.00
64340;BME280;63709;53.258;-8.814;2023-03-16T01:57:42;99526.13;;;15.00;100.00
64340;BME280;63709;53.258;-8.814;2023-03-16T02:00:12;99526.13;;;15.00;100.00
64340;BME280;63709;53.258;-8.814;2023-03-16T02:02:50;99506.00;;;14.96;100.00
64340;BME280;63709;53.258;-8.814;2023-03-16T02:08:03;99500.75;;;15.03;100.00
64340;BME280;63709;53.258;-8.814;2023-03-16T02:10:29;99497.41;;;15.00;100.00
64340;BME280;63709;53.258;-8.814;2023-03-16T02:12:57;99492.50;;;15.04;100.00
64340;BME280;63709;53.258;-8.814;2023-03-16T02:15:24;99485.16;;;14.98;100.00
64340;BME280;63709;53.258;-8.814;2023-03-16T02:17:49;99482.94;;;15.01;100.00
64340;BME280;63709;53.258;-8.814;2023-03-16T02:22:48;99479.41;;;15.09;100.00
64340;BME280;63709;53.258;-8.814;2023-03-16T02:25:15;99470.66;;;15.07;100.00
64340;BME280;63709;53.258;-8.814;2023-03-16T02:30:15;99446.81;;;15.04;100.00
64340;BME280;63709;53.258;-8.814;2023-03-16T02:32:41;99450.53;;;15.03;100.00
64340;BME280;63709;53.258;-8.814;2023-03-16T02:35:09;99450.19;;;15.06;100.00
64340;BME280;63709;53.258;-8.814;2023-03-16T02:37:34;99453.56;;;15.00;100.00
64340;BME280;63709;53.258;-8.814;2023-03-16T02:40:12;99453.88;;;15.05;100.00
64340;BME280;63709;53.258;-8.814;2023-03-16T02:42:40;99455.44;;;14.99;100.00
64340;BME280;63709;53.258;-8.814;2023-03-16T02:45:08;99450.47;;;14.88;100.00
64340;BME280;63709;53.258;-8.814;2023-03-16T02:47:39;99452.97;;;14.90;100.00
64340;BME280;63709;53.258;-8.814;2023-03-16T02:50:05;99441.38;;;14.89;100.00
64340;BME280;63709;53.258;-8.814;2023-03-16T02:52:33;99434.56;;;15.01;100.00
64340;BME280;63709;53.258;-8.814;2023-03-16T02:54:59;99430.41;;;14.99;100.00
64340;BME280;63709;53.258;-8.814;2023-03-16T02:57:24;99435.91;;;15.06;100.00
64340;BME280;63709;53.258;-8.814;2023-03-16T02:59:49;99441.66;;;15.03;100.00
64340;BME280;63709;53.258;-8.814;2023-03-16T03:02:16;99427.19;;;15.04;100.00
64340;BME280;63709;53.258;-8.814;2023-03-16T03:04:41;99418.47;;;15.01;100.00
64340;BME280;63709;53.258;-8.814;2023-03-16T03:07:11;99414.94;;;15.01;100.00
64340;BME280;63709;53.258;-8.814;2023-03-16T03:09:39;99413.41;;;15.07;100.00
64340;BME280;63709;53.258;-8.814;2023-03-16T03:12:09;99397.09;;;15.08;100.00
64340;BME280;63709;53.258;-8.814;2023-03-16T03:14:35;99395.41;;;15.07;100.00
64340;BME280;63709;53.258;-8.814;2023-03-16T03:17:04;99395.06;;;15.10;100.00
64340;BME280;63709;53.258;-8.814;2023-03-16T03:19:31;99397.91;;;15.09;100.00
64340;BME280;63709;53.258;-8.814;2023-03-16T03:22:02;99384.97;;;15.12;100.00
64340;BME280;63709;53.258;-8.814;2023-03-16T03:24:29;99387.44;;;14.99;100.00
64340;BME280;63709;53.258;-8.814;2023-03-16T03:26:56;99376.97;;;15.04;100.00
64340;BME280;63709;53.258;-8.814;2023-03-16T03:29:21;99370.22;;;15.08;100.00
64340;BME280;63709;53.258;-8.814;2023-03-16T03:31:46;99377.28;;;15.09;100.00
64340;BME280;63709;53.258;-8.814;2023-03-16T03:34:12;99380.31;;;15.06;100.00
64340;BME280;63709;53.258;-8.814;2023-03-16T03:36:37;99366.47;;;15.17;100.00
64340;BME280;63709;53.258;-8.814;2023-03-16T03:39:03;99376.19;;;14.95;100.00
64340;BME280;63709;53.258;-8.814;2023-03-16T03:41:31;99367.88;;;15.05;100.00
64340;BME280;63709;53.258;-8.814;2023-03-16T03:43:58;99356.97;;;15.07;100.00
64340;BME280;63709;53.258;-8.814;2023-03-16T03:46:24;99353.34;;;14.99;100.00
64340;BME280;63709;53.258;-8.814;2023-03-16T03:48:50;99347.47;;;14.96;100.00
64340;BME280;63709;53.258;-8.814;2023-03-16T03:51:15;99347.19;;;14.91;100.00
64340;BME280;63709;53.258;-8.814;2023-03-16T03:53:40;99350.16;;;14.96;100.00
64340;BME280;63709;53.258;-8.814;2023-03-16T03:56:06;99337.00;;;15.01;100.00
64340;BME280;63709;53.258;-8.814;2023-03-16T03:58:32;99344.38;;;14.84;100.00
64340;BME280;63709;53.258;-8.814;2023-03-16T04:00:58;99348.13;;;14.98;100.00
64340;BME280;63709;53.258;-8.814;2023-03-16T04:03:23;99342.47;;;14.93;100.00
64340;BME280;63709;53.258;-8.814;2023-03-16T04:05:50;99330.81;;;15.00;100.00
64340;BME280;63709;53.258;-8.814;2023-03-16T04:08:16;99333.56;;;14.92;100.00
64340;BME280;63709;53.258;-8.814;2023-03-16T04:10:41;99323.66;;;14.93;100.00
64340;BME280;63709;53.258;-8.814;2023-03-16T04:13:08;99319.94;;;14.94;100.00
64340;BME280;63709;53.258;-8.814;2023-03-16T04:15:35;99307.53;;;14.93;100.00
64340;BME280;63709;53.258;-8.814;2023-03-16T04:18:02;99305.31;;;14.96;100.00
64340;BME280;63709;53.258;-8.814;2023-03-16T04:20:28;99307.19;;;14.96;100.00
64340;BME280;63709;53.258;-8.814;2023-03-16T04:22:55;99316.97;;;14.89;100.00
64340;BME280;63709;53.258;-8.814;2023-03-16T04:25:23;99312.78;;;14.86;100.00
64340;BME280;63709;53.258;-8.814;2023-03-16T04:27:49;99325.16;;;14.95;100.00
64340;BME280;63709;53.258;-8.814;2023-03-16T04:30:15;99318.69;;;14.82;100.00
64340;BME280;63709;53.258;-8.814;2023-03-16T04:32:42;99314.06;;;14.98;100.00
64340;BME280;63709;53.258;-8.814;2023-03-16T04:35:09;99303.94;;;15.00;100.00
64340;BME280;63709;53.258;-8.814;2023-03-16T04:37:35;99294.94;;;14.93;100.00
64340;BME280;63709;53.258;-8.814;2023-03-16T04:40:00;99282.72;;;14.91;100.00
64340;BME280;63709;53.258;-8.814;2023-03-16T04:42:34;99288.09;;;14.91;100.00
64340;BME280;63709;53.258;-8.814;2023-03-16T04:45:00;99284.94;;;14.87;100.00
64340;BME280;63709;53.258;-8.814;2023-03-16T04:47:26;99284.44;;;14.84;100.00
64340;BME280;63709;53.258;-8.814;2023-03-16T04:49:51;99280.06;;;14.83;100.00
64340;BME280;63709;53.258;-8.814;2023-03-16T04:52:17;99286.41;;;14.90;100.00
64340;BME280;63709;53.258;-8.814;2023-03-16T04:54:43;99274.00;;;14.89;100.00
64340;BME280;63709;53.258;-8.814;2023-03-16T04:57:08;99286.75;;;14.87;100.00
64340;BME280;63709;53.258;-8.814;2023-03-16T04:59:33;99276.09;;;14.79;100.00
64340;BME280;63709;53.258;-8.814;2023-03-16T05:01:59;99285.16;;;14.77;100.00
64340;BME280;63709;53.258;-8.814;2023-03-16T05:04:26;99281.78;;;14.84;100.00
64340;BME280;63709;53.258;-8.814;2023-03-16T05:06:51;99291.69;;;14.83;100.00
64340;BME280;63709;53.258;-8.814;2023-03-16T05:09:16;99294.53;;;14.82;100.00
64340;BME280;63709;53.258;-8.814;2023-03-16T05:11:42;99291.69;;;14.83;100.00
64340;BME280;63709;53.258;-8.814;2023-03-16T05:14:08;99285.28;;;14.84;100.00
64340;BME280;63709;53.258;-8.814;2023-03-16T05:16:35;99284.44;;;14.84;100.00
64340;BME280;63709;53.258;-8.814;2023-03-16T05:19:00;99275.91;;;14.80;100.00
64340;BME280;63709;53.258;-8.814;2023-03-16T05:21:27;99280.75;;;14.85;100.00
64340;BME280;63709;53.258;-8.814;2023-03-16T05:23:56;99279.25;;;14.82;100.00
64340;BME280;63709;53.258;-8.814;2023-03-16T05:26:22;99273.59;;;14.77;100.00
64340;BME280;63709;53.258;-8.814;2023-03-16T05:28:50;99280.63;;;14.78;100.00
64340;BME280;63709;53.258;-8.814;2023-03-16T05:31:17;99274.28;;;14.71;100.00
64340;BME280;63709;53.258;-8.814;2023-03-16T05:33:42;99287.72;;;14.71;100.00
64340;BME280;63709;53.258;-8.814;2023-03-16T05:36:09;99276.97;;;14.71;100.00
64340;BME280;63709;53.258;-8.814;2023-03-16T05:38:34;99271.38;;;14.81;100.00
64340;BME280;63709;53.258;-8.814;2023-03-16T05:41:01;99267.75;;;14.73;100.00
64340;BME280;63709;53.258;-8.814;2023-03-16T05:43:29;99266.00;;;14.81;100.00
64340;BME280;63709;53.258;-8.814;2023-03-16T05:45:55;99264.47;;;14.63;100.00
64340;BME280;63709;53.258;-8.814;2023-03-16T05:48:22;99254.47;;;14.72;100.00
64340;BME280;63709;53.258;-8.814;2023-03-16T05:50:51;99249.28;;;14.70;100.00
64340;BME280;63709;53.258;-8.814;2023-03-16T05:53:16;99243.66;;;14.65;100.00
64340;BME280;63709;53.258;-8.814;2023-03-16T05:55:42;99246.34;;;14.65;100.00
64340;BME280;63709;53.258;-8.814;2023-03-16T05:58:09;99249.66;;;14.67;100.00
64340;BME280;63709;53.258;-8.814;2023-03-16T06:00:36;99248.81;;;14.67;100.00
64340;BME280;63709;53.258;-8.814;2023-03-16T06:03:03;99256.75;;;14.60;100.00
64340;BME280;63709;53.258;-8.814;2023-03-16T06:05:29;99251.94;;;14.56;100.00
64340;BME280;63709;53.258;-8.814;2023-03-16T06:07:57;99251.38;;;14.60;100.00
64340;BME280;63709;53.258;-8.814;2023-03-16T06:10:22;99251.59;;;14.59;100.00
64340;BME280;63709;53.258;-8.814;2023-03-16T06:12:49;99254.13;;;14.52;100.00
64340;BME280;63709;53.258;-8.814;2023-03-16T06:15:15;99251.78;;;14.49;100.00
64340;BME280;63709;53.258;-8.814;2023-03-16T06:17:41;99254.91;;;14.61;100.00
64340;BME280;63709;53.258;-8.814;2023-03-16T06:20:08;99255.94;;;14.60;100.00
64340;BME280;63709;53.258;-8.814;2023-03-16T06:22:36;99260.81;;;14.56;100.00
64340;BME280;63709;53.258;-8.814;2023-03-16T06:25:02;99257.44;;;14.62;100.00
64340;BME280;63709;53.258;-8.814;2023-03-16T06:27:28;99261.22;;;14.68;100.00
64340;BME280;63709;53.258;-8.814;2023-03-16T06:29:53;99251.69;;;14.65;100.00
64340;BME280;63709;53.258;-8.814;2023-03-16T06:32:20;99253.84;;;14.70;100.00
64340;BME280;63709;53.258;-8.814;2023-03-16T06:34:46;99248.28;;;14.71;100.00
64340;BME280;63709;53.258;-8.814;2023-03-16T06:37:12;99249.06;;;14.80;100.00
64340;BME280;63709;53.258;-8.814;2023-03-16T06:39:38;99255.97;;;14.74;100.00
64340;BME280;63709;53.258;-8.814;2023-03-16T06:42:03;99247.38;;;14.79;100.00
64340;BME280;63709;53.258;-8.814;2023-03-16T06:44:29;99249.22;;;14.79;100.00
64340;BME280;63709;53.258;-8.814;2023-03-16T06:46:55;99261.00;;;14.77;100.00
64340;BME280;63709;53.258;-8.814;2023-03-16T06:49:21;99253.97;;;14.76;100.00
64340;BME280;63709;53.258;-8.814;2023-03-16T06:51:46;99259.81;;;14.80;100.00
64340;BME280;63709;53.258;-8.814;2023-03-16T06:54:13;99258.78;;;14.81;100.00
64340;BME280;63709;53.258;-8.814;2023-03-16T06:56:39;99275.56;;;14.83;100.00
64340;BME280;63709;53.258;-8.814;2023-03-16T06:59:05;99264.63;;;14.85;100.00
64340;BME280;63709;53.258;-8.814;2023-03-16T07:01:30;99265.53;;;14.77;100.00
64340;BME280;63709;53.258;-8.814;2023-03-16T07:03:55;99269.03;;;14.77;100.00
64340;BME280;63709;53.258;-8.814;2023-03-16T07:06:22;99263.00;;;14.75;100.00
64340;BME280;63709;53.258;-8.814;2023-03-16T07:08:49;99265.25;;;14.87;100.00
64340;BME280;63709;53.258;-8.814;2023-03-16T07:11:14;99261.47;;;14.81;100.00
64340;BME280;63709;53.258;-8.814;2023-03-16T07:13:40;99250.53;;;14.83;100.00
64340;BME280;63709;53.258;-8.814;2023-03-16T07:16:05;99249.63;;;14.90;100.00
64340;BME280;63709;53.258;-8.814;2023-03-16T07:18:32;99260.84;;;14.94;100.00
64340;BME280;63709;53.258;-8.814;2023-03-16T07:20:58;99258.34;;;14.92;100.00
64340;BME280;63709;53.258;-8.814;2023-03-16T07:23:24;99266.59;;;14.91;100.00
64340;BME280;63709;53.258;-8.814;2023-03-16T07:25:50;99269.09;;;14.92;100.00
64340;BME280;63709;53.258;-8.814;2023-03-16T07:28:17;99271.22;;;14.97;100.00
64340;BME280;63709;53.258;-8.814;2023-03-16T07:30:43;99265.75;;;14.90;100.00
64340;BME280;63709;53.258;-8.814;2023-03-16T07:33:09;99262.34;;;14.96;100.00
64340;BME280;63709;53.258;-8.814;2023-03-16T07:35:34;99273.09;;;14.96;100.00
64340;BME280;63709;53.258;-8.814;2023-03-16T07:38:00;99274.22;;;15.02;100.00
64340;BME280;63709;53.258;-8.814;2023-03-16T07:40:25;99270.50;;;15.03;100.00
64340;BME280;63709;53.258;-8.814;2023-03-16T07:42:52;99280.19;;;14.89;100.00
64340;BME280;63709;53.258;-8.814;2023-03-16T07:45:19;99282.91;;;15.04;100.00
64340;BME280;63709;53.258;-8.814;2023-03-16T07:47:45;99285.69;;;14.96;100.00
64340;BME280;63709;53.258;-8.814;2023-03-16T07:50:11;99281.41;;;15.01;100.00
64340;BME280;63709;53.258;-8.814;2023-03-16T07:52:37;99284.97;;;15.02;100.00
64340;BME280;63709;53.258;-8.814;2023-03-16T07:55:04;99282.28;;;15.02;100.00
64340;BME280;63709;53.258;-8.814;2023-03-16T07:57:30;99286.63;;;15.03;100.00
64340;BME280;63709;53.258;-8.814;2023-03-16T07:59:55;99279.94;;;14.99;100.00
64340;BME280;63709;53.258;-8.814;2023-03-16T08:02:21;99282.91;;;15.04;100.00
64340;BME280;63709;53.258;-8.814;2023-03-16T08:04:48;99287.94;;;15.07;100.00
64340;BME280;63709;53.258;-8.814;2023-03-16T08:07:14;99291.72;;;15.13;100.00
64340;BME280;63709;53.258;-8.814;2023-03-16T08:09:41;99299.63;;;15.14;100.00
64340;BME280;63709;53.258;-8.814;2023-03-16T08:12:08;99298.97;;;15.12;100.00
64340;BME280;63709;53.258;-8.814;2023-03-16T08:14:34;99299.78;;;15.13;100.00
64340;BME280;63709;53.258;-8.814;2023-03-16T08:17:01;99306.31;;;15.18;100.00
64340;BME280;63709;53.258;-8.814;2023-03-16T08:19:27;99313.91;;;15.15;100.00
64340;BME280;63709;53.258;-8.814;2023-03-16T08:21:53;99307.25;;;15.25;100.00
64340;BME280;63709;53.258;-8.814;2023-03-16T08:24:19;99318.81;;;15.11;100.00
64340;BME280;63709;53.258;-8.814;2023-03-16T08:26:44;99313.81;;;15.23;100.00
64340;BME280;63709;53.258;-8.814;2023-03-16T08:29:10;99311.50;;;15.35;100.00
64340;BME280;63709;53.258;-8.814;2023-03-16T08:31:36;99316.06;;;15.34;100.00
64340;BME280;63709;53.258;-8.814;2023-03-16T08:34:02;99310.22;;;15.31;100.00
64340;BME280;63709;53.258;-8.814;2023-03-16T08:36:28;99308.19;;;15.33;100.00
64340;BME280;63709;53.258;-8.814;2023-03-16T08:38:55;99318.50;;;15.44;100.00
64340;BME280;63709;53.258;-8.814;2023-03-16T08:41:21;99319.91;;;15.55;100.00
64340;BME280;63709;53.258;-8.814;2023-03-16T08:43:48;99319.53;;;15.58;100.00
64340;BME280;63709;53.258;-8.814;2023-03-16T08:46:14;99327.19;;;15.69;100.00
64340;BME280;63709;53.258;-8.814;2023-03-16T08:48:40;99330.03;;;15.67;100.00
64340;BME280;63709;53.258;-8.814;2023-03-16T08:51:07;99329.91;;;15.61;100.00
64340;BME280;63709;53.258;-8.814;2023-03-16T08:53:35;99336.56;;;15.73;100.00
64340;BME280;63709;53.258;-8.814;2023-03-16T08:56:05;99332.72;;;15.82;100.00
64340;BME280;63709;53.258;-8.814;2023-03-16T08:58:32;99324.41;;;15.77;100.00
64340;BME280;63709;53.258;-8.814;2023-03-16T09:00:59;99326.31;;;15.83;100.00
64340;BME280;63709;53.258;-8.814;2023-03-16T09:03:26;99326.41;;;15.75;100.00
64340;BME280;63709;53.258;-8.814;2023-03-16T09:05:52;99332.56;;;15.69;100.00
64340;BME280;63709;53.258;-8.814;2023-03-16T09:08:18;99329.22;;;15.82;100.00
64340;BME280;63709;53.258;-8.814;2023-03-16T09:10:43;99331.69;;;15.83;100.00
64340;BME280;63709;53.258;-8.814;2023-03-16T09:13:10;99333.28;;;15.92;100.00
64340;BME280;63709;53.258;-8.814;2023-03-16T09:15:37;99325.97;;;15.86;100.00
64340;BME280;63709;53.258;-8.814;2023-03-16T09:18:04;99335.63;;;15.95;100.00
64340;BME280;63709;53.258;-8.814;2023-03-16T09:20:30;99327.06;;;16.07;100.00
64340;BME280;63709;53.258;-8.814;2023-03-16T09:22:55;99325.66;;;16.26;100.00
64340;BME280;63709;53.258;-8.814;2023-03-16T09:25:21;99327.13;;;16.28;100.00
64340;BME280;63709;53.258;-8.814;2023-03-16T09:27:49;99320.59;;;16.37;100.00
64340;BME280;63709;53.258;-8.814;2023-03-16T09:30:14;99318.56;;;16.39;100.00
64340;BME280;63709;53.258;-8.814;2023-03-16T09:32:41;99317.06;;;16.37;100.00
64340;BME280;63709;53.258;-8.814;2023-03-16T09:35:06;99320.16;;;16.34;100.00
64340;BME280;63709;53.258;-8.814;2023-03-16T09:37:32;99324.97;;;16.38;100.00
64340;BME280;63709;53.258;-8.814;2023-03-16T09:39:58;99326.41;;;16.56;100.00
64340;BME280;63709;53.258;-8.814;2023-03-16T09:45:13;99326.03;;;16.59;100.00
64340;BME280;63709;53.258;-8.814;2023-03-16T09:47:41;99335.25;;;16.71;100.00
64340;BME280;63709;53.258;-8.814;2023-03-16T09:50:09;99321.44;;;16.74;100.00
64340;BME280;63709;53.258;-8.814;2023-03-16T09:52:59;99328.97;;;16.64;100.00
64340;BME280;63709;53.258;-8.814;2023-03-16T09:55:29;99333.06;;;16.60;100.00
64340;BME280;63709;53.258;-8.814;2023-03-16T09:57:56;99339.13;;;16.62;100.00
64340;BME280;63709;53.258;-8.814;2023-03-16T10:00:26;99337.41;;;16.76;100.00
64340;BME280;63709;53.258;-8.814;2023-03-16T10:05:27;99343.06;;;16.81;100.00
64340;BME280;63709;53.258;-8.814;2023-03-16T10:13:11;99340.84;;;16.84;100.00
64340;BME280;63709;53.258;-8.814;2023-03-16T10:15:41;99352.81;;;16.82;100.00
64340;BME280;63709;53.258;-8.814;2023-03-16T10:18:27;99334.13;;;17.02;100.00
64340;BME280;63709;53.258;-8.814;2023-03-16T10:20:56;99347.63;;;17.02;100.00
64340;BME280;63709;53.258;-8.814;2023-03-16T10:23:23;99343.56;;;17.12;100.00
64340;BME280;63709;53.258;-8.814;2023-03-16T10:25:50;99346.16;;;17.21;100.00
64340;BME280;63709;53.258;-8.814;2023-03-16T10:28:21;99352.56;;;17.20;100.00
64340;BME280;63709;53.258;-8.814;2023-03-16T10:30:48;99353.00;;;17.23;100.00
64340;BME280;63709;53.258;-8.814;2023-03-16T10:36:12;99358.22;;;17.25;100.00
64340;BME280;63709;53.258;-8.814;2023-03-16T10:43:46;99349.69;;;17.21;100.00
64340;BME280;63709;53.258;-8.814;2023-03-16T10:46:13;99349.25;;;17.24;100.00
64340;BME280;63709;53.258;-8.814;2023-03-16T10:48:40;99350.47;;;17.43;100.00
64340;BME280;63709;53.258;-8.814;2023-03-16T10:51:12;99352.97;;;17.45;100.00
64340;BME280;63709;53.258;-8.814;2023-03-16T10:53:41;99356.25;;;17.40;100.00
64340;BME280;63709;53.258;-8.814;2023-03-16T10:56:09;99354.63;;;17.46;100.00
64340;BME280;63709;53.258;-8.814;2023-03-16T10:58:40;99346.25;;;17.34;100.00
64340;BME280;63709;53.258;-8.814;2023-03-16T11:01:20;99346.75;;;17.44;100.00
64340;BME280;63709;53.258;-8.814;2023-03-16T11:03:48;99351.31;;;17.44;100.00
64340;BME280;63709;53.258;-8.814;2023-03-16T11:06:20;99358.75;;;17.41;100.00
64340;BME280;63709;53.258;-8.814;2023-03-16T11:08:46;99352.69;;;17.33;100.00
64340;BME280;63709;53.258;-8.814;2023-03-16T11:11:13;99357.78;;;17.21;100.00
64340;BME280;63709;53.258;-8.814;2023-03-16T11:13:44;99354.09;;;17.29;100.00
64340;BME280;63709;53.258;-8.814;2023-03-16T11:18:50;99358.06;;;17.33;100.00
64340;BME280;63709;53.258;-8.814;2023-03-16T11:23:50;99352.38;;;17.21;100.00
64340;BME280;63709;53.258;-8.814;2023-03-16T11:26:38;99354.66;;;17.24;100.00
64340;BME280;63709;53.258;-8.814;2023-03-16T11:29:10;99348.97;;;17.12;100.00
64340;BME280;63709;53.258;-8.814;2023-03-16T11:31:46;99351.56;;;16.99;100.00
64340;BME280;63709;53.258;-8.814;2023-03-16T11:34:15;99354.19;;;16.92;100.00
64340;BME280;63709;53.258;-8.814;2023-03-16T11:36:49;99367.72;;;16.78;100.00
64340;BME280;63709;53.258;-8.814;2023-03-16T11:52:44;99354.88;;;16.29;100.00
64340;BME280;63709;53.258;-8.814;2023-03-16T11:55:18;99366.59;;;16.36;100.00
64340;BME280;63709;53.258;-8.814;2023-03-16T12:05:33;99361.28;;;16.64;100.00
64340;BME280;63709;53.258;-8.814;2023-03-16T12:08:15;99369.19;;;16.80;100.00
64340;BME280;63709;53.258;-8.814;2023-03-16T12:10:56;99359.25;;;17.02;100.00
64340;BME280;63709;53.258;-8.814;2023-03-16T12:13:39;99360.16;;;17.09;100.00
64340;BME280;63709;53.258;-8.814;2023-03-16T12:21:06;99357.34;;;17.74;100.00
64340;BME280;63709;53.258;-8.814;2023-03-16T12:23:37;99353.72;;;17.88;100.00
64340;BME280;63709;53.258;-8.814;2023-03-16T12:26:03;99356.44;;;17.95;100.00
64340;BME280;63709;53.258;-8.814;2023-03-16T12:28:29;99350.06;;;17.74;100.00
64340;BME280;63709;53.258;-8.814;2023-03-16T12:31:02;99351.75;;;17.75;100.00
64340;BME280;63709;53.258;-8.814;2023-03-16T12:38:32;99361.25;;;17.71;100.00
64340;BME280;63709;53.258;-8.814;2023-03-16T12:41:13;99346.88;;;17.64;100.00
64340;BME280;63709;53.258;-8.814;2023-03-16T12:48:55;99353.38;;;17.70;100.00
64340;BME280;63709;53.258;-8.814;2023-03-16T12:51:31;99351.94;;;17.74;100.00
64340;BME280;63709;53.258;-8.814;2023-03-16T12:53:57;99354.38;;;17.69;100.00
64340;BME280;63709;53.258;-8.814;2023-03-16T12:56:30;99347.38;;;17.74;100.00
64340;BME280;63709;53.258;-8.814;2023-03-16T12:58:57;99349.44;;;18.00;100.00
64340;BME280;63709;53.258;-8.814;2023-03-16T13:01:25;99359.00;;;18.09;100.00
64340;BME280;63709;53.258;-8.814;2023-03-16T13:04:07;99351.47;;;18.33;100.00
64340;BME280;63709;53.258;-8.814;2023-03-16T13:06:34;99345.69;;;18.49;100.00
64340;BME280;63709;53.258;-8.814;2023-03-16T13:09:00;99343.22;;;18.61;100.00
64340;BME280;63709;53.258;-8.814;2023-03-16T13:11:27;99344.97;;;18.82;100.00
64340;BME280;63709;53.258;-8.814;2023-03-16T13:14:06;99337.31;;;19.58;100.00
64340;BME280;63709;53.258;-8.814;2023-03-16T13:16:37;99333.88;;;20.10;100.00
64340;BME280;63709;53.258;-8.814;2023-03-16T13:19:16;99323.31;;;20.53;100.00
64340;BME280;63709;53.258;-8.814;2023-03-16T13:21:46;99328.00;;;21.34;100.00
64340;BME280;63709;53.258;-8.814;2023-03-16T13:24:59;99324.88;;;21.56;100.00
64340;BME280;63709;53.258;-8.814;2023-03-16T13:27:01;99334.13;;;21.73;100.00
64340;BME280;63709;53.258;-8.814;2023-03-16T13:29:30;99326.44;;;22.07;100.00
64340;BME280;63709;53.258;-8.814;2023-03-16T13:31:57;99319.19;;;21.82;100.00
64340;BME280;63709;53.258;-8.814;2023-03-16T13:34:34;99318.56;;;21.62;100.00
64340;BME280;63709;53.258;-8.814;2023-03-16T13:37:01;99315.78;;;21.18;100.00
64340;BME280;63709;53.258;-8.814;2023-03-16T13:39:28;99316.13;;;20.65;100.00
64340;BME280;63709;53.258;-8.814;2023-03-16T13:44:27;99324.19;;;19.55;100.00
64340;BME280;63709;53.258;-8.814;2023-03-16T13:46:52;99332.31;;;19.42;100.00
64340;BME280;63709;53.258;-8.814;2023-03-16T13:49:18;99337.94;;;19.07;100.00
64340;BME280;63709;53.258;-8.814;2023-03-16T13:51:44;99344.91;;;18.62;100.00
64340;BME280;63709;53.258;-8.814;2023-03-16T13:54:29;99363.97;;;17.99;100.00